sensor_id;sensor_type;location;lat;lon;timestamp;temperature;humidity
21612;DHT22;47005;52.292;13.452;2024-01-07T00:02:11;2.50;97.70
21612;DHT22;47005;52.292;13.452;2024-01-07T00:04:36;2.40;98.00
21612;DHT22;47005;52.292;13.452;2024-01-07T00:07:03;2.40;97.80
21612;DHT22;47005;52.292;13.452;2024-01-07T00:09:29;2.40;98.00
21612;DHT22;47005;52.292;13.452;2024-01-07T00:11:55;2.40;98.20
21612;DHT22;47005;52.292;13.452;2024-01-07T00:14:20;2.40;97.60
21612;DHT22;47005;52.292;13.452;2024-01-07T00:16:46;2.40;97.90
21612;DHT22;47005;52.292;13.452;2024-01-07T00:19:11;2.40;97.80
21612;DHT22;47005;52.292;13.452;2024-01-07T00:21:37;2.50;98.00
21612;DHT22;47005;52.292;13.452;2024-01-07T00:24:03;2.50;97.90
21612;DHT22;47005;52.292;13.452;2024-01-07T00:26:28;2.50;97.80
21612;DHT22;47005;52.292;13.452;2024-01-07T00:28:54;2.50;97.90
21612;DHT22;47005;52.292;13.452;2024-01-07T00:31:20;2.50;97.90
21612;DHT22;47005;52.292;13.452;2024-01-07T00:33:45;2.40;97.60
21612;DHT22;47005;52.292;13.452;2024-01-07T00:36:11;2.40;97.60
21612;DHT22;47005;52.292;13.452;2024-01-07T00:38:36;2.40;97.80
21612;DHT22;47005;52.292;13.452;2024-01-07T00:41:02;2.50;97.30
21612;DHT22;47005;52.292;13.452;2024-01-07T00:43:27;2.40;97.70
21612;DHT22;47005;52.292;13.452;2024-01-07T00:45:53;2.40;97.70
21612;DHT22;47005;52.292;13.452;2024-01-07T00:48:19;2.50;97.50
21612;DHT22;47005;52.292;13.452;2024-01-07T00:50:44;2.50;97.20
21612;DHT22;47005;52.292;13.452;2024-01-07T00:53:10;2.40;97.30
21612;DHT22;47005;52.292;13.452;2024-01-07T00:55:35;2.40;97.40
21612;DHT22;47005;52.292;13.452;2024-01-07T00:58:02;2.40;97.50
21612;DHT22;47005;52.292;13.452;2024-01-07T01:00:28;2.40;97.40
21612;DHT22;47005;52.292;13.452;2024-01-07T01:02:54;2.40;97.20
21612;DHT22;47005;52.292;13.452;2024-01-07T01:05:20;2.50;97.50
21612;DHT22;47005;52.292;13.452;2024-01-07T01:07:45;2.40;97.50
21612;DHT22;47005;52.292;13.452;2024-01-07T01:10:11;2.40;97.30
21612;DHT22;47005;52.292;13.452;2024-01-07T01:12:37;2.40;97.20
21612;DHT22;47005;52.292;13.452;2024-01-07T01:15:02;2.40;97.40
21612;DHT22;47005;52.292;13.452;2024-01-07T01:17:28;2.40;97.60
21612;DHT22;47005;52.292;13.452;2024-01-07T01:19:54;2.40;97.40
21612;DHT22;47005;52.292;13.452;2024-01-07T01:22:20;2.40;97.60
21612;DHT22;47005;52.292;13.452;2024-01-07T01:24:45;2.40;97.40
21612;DHT22;47005;52.292;13.452;2024-01-07T01:27:12;2.40;97.30
21612;DHT22;47005;52.292;13.452;2024-01-07T01:29:38;2.40;97.40
21612;DHT22;47005;52.292;13.452;2024-01-07T01:32:05;2.40;97.50
21612;DHT22;47005;52.292;13.452;2024-01-07T01:34:31;2.40;97.30
21612;DHT22;47005;52.292;13.452;2024-01-07T01:36:57;2.40;97.00
21612;DHT22;47005;52.292;13.452;2024-01-07T01:39:23;2.40;96.80
21612;DHT22;47005;52.292;13.452;2024-01-07T01:41:48;2.30;97.00
21612;DHT22;47005;52.292;13.452;2024-01-07T01:44:14;2.30;96.40
21612;DHT22;47005;52.292;13.452;2024-01-07T01:46:39;2.30;96.80
21612;DHT22;47005;52.292;13.452;2024-01-07T01:49:06;2.30;97.10
21612;DHT22;47005;52.292;13.452;2024-01-07T01:51:32;2.30;97.40
21612;DHT22;47005;52.292;13.452;2024-01-07T01:53:58;2.40;97.20
21612;DHT22;47005;52.292;13.452;2024-01-07T01:56:27;2.40;97.10
21612;DHT22;47005;52.292;13.452;2024-01-07T01:58:53;2.30;96.90
21612;DHT22;47005;52.292;13.452;2024-01-07T02:01:18;2.30;96.60
21612;DHT22;47005;52.292;13.452;2024-01-07T02:03:44;2.30;96.40
21612;DHT22;47005;52.292;13.452;2024-01-07T02:06:10;2.30;96.60
21612;DHT22;47005;52.292;13.452;2024-01-07T02:08:39;2.30;96.50
21612;DHT22;47005;52.292;13.452;2024-01-07T02:11:18;2.30;96.20
21612;DHT22;47005;52.292;13.452;2024-01-07T02:13:44;2.20;95.90
21612;DHT22;47005;52.292;13.452;2024-01-07T02:16:10;2.20;96.00
21612;DHT22;47005;52.292;13.452;2024-01-07T02:18:37;2.20;96.20
21612;DHT22;47005;52.292;13.452;2024-01-07T02:21:03;2.10;95.10
21612;DHT22;47005;52.292;13.452;2024-01-07T02:23:29;2.10;95.70
21612;DHT22;47005;52.292;13.452;2024-01-07T02:25:55;2.10;95.60
21612;DHT22;47005;52.292;13.452;2024-01-07T02:28:20;2.10;95.80
21612;DHT22;47005;52.292;13.452;2024-01-07T02:30:46;2.00;95.80
21612;DHT22;47005;52.292;13.452;2024-01-07T02:33:11;2.00;96.00
21612;DHT22;47005;52.292;13.452;2024-01-07T02:35:37;2.00;96.00
21612;DHT22;47005;52.292;13.452;2024-01-07T02:38:03;2.00;96.10
21612;DHT22;47005;52.292;13.452;2024-01-07T02:40:28;2.00;96.20
21612;DHT22;47005;52.292;13.452;2024-01-07T02:42:54;2.00;96.20
21612;DHT22;47005;52.292;13.452;2024-01-07T02:45:22;2.00;96.00
21612;DHT22;47005;52.292;13.452;2024-01-07T02:47:47;2.00;95.60
21612;DHT22;47005;52.292;13.452;2024-01-07T02:50:13;2.00;95.80
21612;DHT22;47005;52.292;13.452;2024-01-07T02:52:39;1.90;95.90
21612;DHT22;47005;52.292;13.452;2024-01-07T02:55:05;1.90;96.10
21612;DHT22;47005;52.292;13.452;2024-01-07T02:57:30;1.90;95.90
21612;DHT22;47005;52.292;13.452;2024-01-07T02:59:56;1.90;95.90
21612;DHT22;47005;52.292;13.452;2024-01-07T03:02:21;1.90;95.80
21612;DHT22;47005;52.292;13.452;2024-01-07T03:04:47;1.90;96.00
21612;DHT22;47005;52.292;13.452;2024-01-07T03:07:13;1.90;96.00
21612;DHT22;47005;52.292;13.452;2024-01-07T03:09:38;1.90;95.70
21612;DHT22;47005;52.292;13.452;2024-01-07T03:12:04;1.90;95.50
21612;DHT22;47005;52.292;13.452;2024-01-07T03:14:30;1.80;95.60
21612;DHT22;47005;52.292;13.452;2024-01-07T03:16:55;1.80;95.90
21612;DHT22;47005;52.292;13.452;2024-01-07T03:19:21;1.80;95.70
21612;DHT22;47005;52.292;13.452;2024-01-07T03:21:48;1.70;95.40
21612;DHT22;47005;52.292;13.452;2024-01-07T03:24:14;1.70;95.70
21612;DHT22;47005;52.292;13.452;2024-01-07T03:26:39;1.70;95.80
21612;DHT22;47005;52.292;13.452;2024-01-07T03:29:05;1.70;95.60
21612;DHT22;47005;52.292;13.452;2024-01-07T03:31:31;1.70;95.30
21612;DHT22;47005;52.292;13.452;2024-01-07T03:33:56;1.70;95.40
21612;DHT22;47005;52.292;13.452;2024-01-07T03:36:22;1.60;95.70
21612;DHT22;47005;52.292;13.452;2024-01-07T03:38:48;1.60;95.70
21612;DHT22;47005;52.292;13.452;2024-01-07T03:41:17;1.60;95.70
21612;DHT22;47005;52.292;13.452;2024-01-07T03:43:44;1.50;95.80
21612;DHT22;47005;52.292;13.452;2024-01-07T03:46:10;1.60;95.70
21612;DHT22;47005;52.292;13.452;2024-01-07T03:48:36;1.50;95.60
21612;DHT22;47005;52.292;13.452;2024-01-07T03:51:01;1.50;95.50
21612;DHT22;47005;52.292;13.452;2024-01-07T03:53:27;1.40;95.30
21612;DHT22;47005;52.292;13.452;2024-01-07T03:55:52;1.40;95.60
21612;DHT22;47005;52.292;13.452;2024-01-07T03:58:18;1.40;95.50
21612;DHT22;47005;52.292;13.452;2024-01-07T04:00:44;1.40;95.70
21612;DHT22;47005;52.292;13.452;2024-01-07T04:03:09;1.40;95.70
21612;DHT22;47005;52.292;13.452;2024-01-07T04:05:35;1.30;95.10
21612;DHT22;47005;52.292;13.452;2024-01-07T04:08:02;1.20;95.10
21612;DHT22;47005;52.292;13.452;2024-01-07T04:10:28;1.20;95.20
21612;DHT22;47005;52.292;13.452;2024-01-07T04:12:54;1.20;94.90
21612;DHT22;47005;52.292;13.452;2024-01-07T04:15:19;1.20;95.40
21612;DHT22;47005;52.292;13.452;2024-01-07T04:17:45;1.20;95.50
21612;DHT22;47005;52.292;13.452;2024-01-07T04:20:13;1.20;95.60
21612;DHT22;47005;52.292;13.452;2024-01-07T04:22:39;1.20;95.60
21612;DHT22;47005;52.292;13.452;2024-01-07T04:25:05;1.20;95.80
21612;DHT22;47005;52.292;13.452;2024-01-07T04:27:37;1.20;95.40
21612;DHT22;47005;52.292;13.452;2024-01-07T04:30:04;1.20;95.40
21612;DHT22;47005;52.292;13.452;2024-01-07T04:32:30;1.10;94.90
21612;DHT22;47005;52.292;13.452;2024-01-07T04:34:55;1.10;95.40
21612;DHT22;47005;52.292;13.452;2024-01-07T04:37:23;1.10;95.60
21612;DHT22;47005;52.292;13.452;2024-01-07T04:39:49;1.10;95.70
21612;DHT22;47005;52.292;13.452;2024-01-07T04:42:15;1.10;95.40
21612;DHT22;47005;52.292;13.452;2024-01-07T04:44:41;1.10;95.40
21612;DHT22;47005;52.292;13.452;2024-01-07T04:47:26;1.10;95.60
21612;DHT22;47005;52.292;13.452;2024-01-07T04:49:53;1.00;95.00
21612;DHT22;47005;52.292;13.452;2024-01-07T04:52:18;1.00;95.00
21612;DHT22;47005;52.292;13.452;2024-01-07T04:54:44;1.00;95.30
21612;DHT22;47005;52.292;13.452;2024-01-07T04:57:10;1.00;95.40
21612;DHT22;47005;52.292;13.452;2024-01-07T04:59:35;1.00;95.00
21612;DHT22;47005;52.292;13.452;2024-01-07T05:02:01;0.90;95.00
21612;DHT22;47005;52.292;13.452;2024-01-07T05:04:26;0.90;94.80
21612;DHT22;47005;52.292;13.452;2024-01-07T05:06:52;0.90;95.10
21612;DHT22;47005;52.292;13.452;2024-01-07T05:09:18;0.90;95.00
21612;DHT22;47005;52.292;13.452;2024-01-07T05:11:43;0.80;94.90
21612;DHT22;47005;52.292;13.452;2024-01-07T05:14:10;0.80;94.90
21612;DHT22;47005;52.292;13.452;2024-01-07T05:16:36;0.80;94.70
21612;DHT22;47005;52.292;13.452;2024-01-07T05:19:01;0.70;94.70
21612;DHT22;47005;52.292;13.452;2024-01-07T05:21:27;0.70;94.60
21612;DHT22;47005;52.292;13.452;2024-01-07T05:23:53;0.70;94.80
21612;DHT22;47005;52.292;13.452;2024-01-07T05:26:18;0.70;94.90
21612;DHT22;47005;52.292;13.452;2024-01-07T05:28:44;0.70;94.80
21612;DHT22;47005;52.292;13.452;2024-01-07T05:31:17;0.70;94.50
21612;DHT22;47005;52.292;13.452;2024-01-07T05:33:43;0.70;94.80
21612;DHT22;47005;52.292;13.452;2024-01-07T05:36:12;0.60;94.80
21612;DHT22;47005;52.292;13.452;2024-01-07T05:38:38;0.60;94.60
21612;DHT22;47005;52.292;13.452;2024-01-07T05:41:04;0.70;94.80
21612;DHT22;47005;52.292;13.452;2024-01-07T05:43:30;0.60;94.50
21612;DHT22;47005;52.292;13.452;2024-01-07T05:45:56;0.60;94.40
21612;DHT22;47005;52.292;13.452;2024-01-07T05:48:22;0.70;94.50
21612;DHT22;47005;52.292;13.452;2024-01-07T05:50:48;0.70;94.60
21612;DHT22;47005;52.292;13.452;2024-01-07T05:53:14;0.70;94.50
21612;DHT22;47005;52.292;13.452;2024-01-07T05:55:39;0.70;94.20
21612;DHT22;47005;52.292;13.452;2024-01-07T05:58:05;0.60;94.20
21612;DHT22;47005;52.292;13.452;2024-01-07T06:00:31;0.60;94.20
21612;DHT22;47005;52.292;13.452;2024-01-07T06:02:56;0.60;94.30
21612;DHT22;47005;52.292;13.452;2024-01-07T06:05:22;0.60;94.10
21612;DHT22;47005;52.292;13.452;2024-01-07T06:07:48;0.50;93.80
21612;DHT22;47005;52.292;13.452;2024-01-07T06:10:14;0.60;94.30
21612;DHT22;47005;52.292;13.452;2024-01-07T06:12:40;0.60;94.10
21612;DHT22;47005;52.292;13.452;2024-01-07T06:15:06;0.60;94.10
21612;DHT22;47005;52.292;13.452;2024-01-07T06:17:32;0.50;93.60
21612;DHT22;47005;52.292;13.452;2024-01-07T06:19:57;0.50;93.80
21612;DHT22;47005;52.292;13.452;2024-01-07T06:22:23;0.50;93.90
21612;DHT22;47005;52.292;13.452;2024-01-07T06:24:49;0.60;93.70
21612;DHT22;47005;52.292;13.452;2024-01-07T06:27:14;0.50;94.00
21612;DHT22;47005;52.292;13.452;2024-01-07T06:29:40;0.60;93.90
21612;DHT22;47005;52.292;13.452;2024-01-07T06:32:06;0.50;94.00
21612;DHT22;47005;52.292;13.452;2024-01-07T06:34:31;0.50;94.10
21612;DHT22;47005;52.292;13.452;2024-01-07T06:36:58;0.50;94.10
21612;DHT22;47005;52.292;13.452;2024-01-07T06:39:24;0.60;94.20
21612;DHT22;47005;52.292;13.452;2024-01-07T06:41:54;0.60;94.10
21612;DHT22;47005;52.292;13.452;2024-01-07T06:44:20;0.60;94.10
21612;DHT22;47005;52.292;13.452;2024-01-07T06:46:45;0.50;94.10
21612;DHT22;47005;52.292;13.452;2024-01-07T06:49:11;0.60;94.30
21612;DHT22;47005;52.292;13.452;2024-01-07T06:51:37;0.60;94.20
21612;DHT22;47005;52.292;13.452;2024-01-07T06:54:04;0.60;94.10
21612;DHT22;47005;52.292;13.452;2024-01-07T06:56:29;0.60;94.30
21612;DHT22;47005;52.292;13.452;2024-01-07T06:58:55;0.60;94.00
21612;DHT22;47005;52.292;13.452;2024-01-07T07:01:21;0.60;94.20
21612;DHT22;47005;52.292;13.452;2024-01-07T07:03:48;0.60;94.10
21612;DHT22;47005;52.292;13.452;2024-01-07T07:06:14;0.60;94.20
21612;DHT22;47005;52.292;13.452;2024-01-07T07:08:40;0.60;94.10
21612;DHT22;47005;52.292;13.452;2024-01-07T07:11:06;0.50;94.10
21612;DHT22;47005;52.292;13.452;2024-01-07T07:13:31;0.60;94.30
21612;DHT22;47005;52.292;13.452;2024-01-07T07:15:57;0.50;94.30
21612;DHT22;47005;52.292;13.452;2024-01-07T07:18:23;0.60;94.30
21612;DHT22;47005;52.292;13.452;2024-01-07T07:20:49;0.60;94.20
21612;DHT22;47005;52.292;13.452;2024-01-07T07:23:15;0.60;94.10
21612;DHT22;47005;52.292;13.452;2024-01-07T07:25:41;0.60;94.40
21612;DHT22;47005;52.292;13.452;2024-01-07T07:28:06;0.60;94.80
21612;DHT22;47005;52.292;13.452;2024-01-07T07:30:32;0.60;94.70
21612;DHT22;47005;52.292;13.452;2024-01-07T07:32:57;0.60;94.80
21612;DHT22;47005;52.292;13.452;2024-01-07T07:35:23;0.60;94.50
21612;DHT22;47005;52.292;13.452;2024-01-07T07:37:49;0.60;94.70
21612;DHT22;47005;52.292;13.452;2024-01-07T07:40:14;0.70;94.60
21612;DHT22;47005;52.292;13.452;2024-01-07T07:42:40;0.60;94.40
21612;DHT22;47005;52.292;13.452;2024-01-07T07:45:06;0.60;94.60
21612;DHT22;47005;52.292;13.452;2024-01-07T07:47:32;0.60;94.60
21612;DHT22;47005;52.292;13.452;2024-01-07T07:49:57;0.60;94.70
21612;DHT22;47005;52.292;13.452;2024-01-07T07:52:23;0.60;94.50
21612;DHT22;47005;52.292;13.452;2024-01-07T07:54:52;0.60;94.80
21612;DHT22;47005;52.292;13.452;2024-01-07T07:57:17;0.60;94.90
21612;DHT22;47005;52.292;13.452;2024-01-07T07:59:46;0.60;94.70
21612;DHT22;47005;52.292;13.452;2024-01-07T08:02:12;0.60;94.90
21612;DHT22;47005;52.292;13.452;2024-01-07T08:04:38;0.60;95.00
21612;DHT22;47005;52.292;13.452;2024-01-07T08:07:06;0.60;94.90
21612;DHT22;47005;52.292;13.452;2024-01-07T08:09:32;0.60;95.10
21612;DHT22;47005;52.292;13.452;2024-01-07T08:11:58;0.60;95.20
21612;DHT22;47005;52.292;13.452;2024-01-07T08:14:23;0.60;95.00
21612;DHT22;47005;52.292;13.452;2024-01-07T08:16:49;0.60;95.10
21612;DHT22;47005;52.292;13.452;2024-01-07T08:19:15;0.60;94.90
21612;DHT22;47005;52.292;13.452;2024-01-07T08:21:41;0.60;94.90
21612;DHT22;47005;52.292;13.452;2024-01-07T08:24:06;0.60;95.10
21612;DHT22;47005;52.292;13.452;2024-01-07T08:26:32;0.60;95.20
21612;DHT22;47005;52.292;13.452;2024-01-07T08:28:57;0.60;95.30
21612;DHT22;47005;52.292;13.452;2024-01-07T08:31:24;0.60;95.30
21612;DHT22;47005;52.292;13.452;2024-01-07T08:33:49;0.60;95.20
21612;DHT22;47005;52.292;13.452;2024-01-07T08:36:15;0.60;95.30
21612;DHT22;47005;52.292;13.452;2024-01-07T08:38:40;0.60;95.10
21612;DHT22;47005;52.292;13.452;2024-01-07T08:41:06;0.70;95.40
21612;DHT22;47005;52.292;13.452;2024-01-07T08:43:33;0.70;95.50
21612;DHT22;47005;52.292;13.452;2024-01-07T08:45:58;0.80;95.40
21612;DHT22;47005;52.292;13.452;2024-01-07T08:48:24;0.80;95.20
21612;DHT22;47005;52.292;13.452;2024-01-07T08:50:49;0.80;95.40
21612;DHT22;47005;52.292;13.452;2024-01-07T08:53:15;0.90;95.30
21612;DHT22;47005;52.292;13.452;2024-01-07T08:55:41;0.90;95.00
21612;DHT22;47005;52.292;13.452;2024-01-07T08:58:07;0.90;95.10
21612;DHT22;47005;52.292;13.452;2024-01-07T09:00:32;0.90;95.10
21612;DHT22;47005;52.292;13.452;2024-01-07T09:02:58;0.90;95.30
21612;DHT22;47005;52.292;13.452;2024-01-07T09:05:24;1.00;95.20
21612;DHT22;47005;52.292;13.452;2024-01-07T09:07:50;1.00;95.00
21612;DHT22;47005;52.292;13.452;2024-01-07T09:10:15;1.00;95.00
21612;DHT22;47005;52.292;13.452;2024-01-07T09:12:41;1.10;95.10
21612;DHT22;47005;52.292;13.452;2024-01-07T09:15:07;1.10;95.00
21612;DHT22;47005;52.292;13.452;2024-01-07T09:17:35;1.10;95.20
21612;DHT22;47005;52.292;13.452;2024-01-07T09:20:02;1.20;95.10
21612;DHT22;47005;52.292;13.452;2024-01-07T09:22:30;1.20;95.10
21612;DHT22;47005;52.292;13.452;2024-01-07T09:24:56;1.20;95.00
21612;DHT22;47005;52.292;13.452;2024-01-07T09:27:21;1.30;95.10
21612;DHT22;47005;52.292;13.452;2024-01-07T09:29:47;1.30;95.20
21612;DHT22;47005;52.292;13.452;2024-01-07T09:32:13;1.30;95.20
21612;DHT22;47005;52.292;13.452;2024-01-07T09:34:38;1.40;95.20
21612;DHT22;47005;52.292;13.452;2024-01-07T09:37:04;1.40;95.10
21612;DHT22;47005;52.292;13.452;2024-01-07T09:39:30;1.50;95.10
21612;DHT22;47005;52.292;13.452;2024-01-07T09:41:55;1.50;94.80
21612;DHT22;47005;52.292;13.452;2024-01-07T09:44:21;1.50;94.90
21612;DHT22;47005;52.292;13.452;2024-01-07T09:46:48;1.50;94.90
21612;DHT22;47005;52.292;13.452;2024-01-07T09:49:17;1.50;94.20
21612;DHT22;47005;52.292;13.452;2024-01-07T09:51:45;1.50;94.20
21612;DHT22;47005;52.292;13.452;2024-01-07T09:54:15;1.50;94.60
21612;DHT22;47005;52.292;13.452;2024-01-07T09:56:54;1.60;94.90
21612;DHT22;47005;52.292;13.452;2024-01-07T09:59:21;1.60;94.50
21612;DHT22;47005;52.292;13.452;2024-01-07T10:01:47;1.60;94.60
21612;DHT22;47005;52.292;13.452;2024-01-07T10:04:14;1.60;94.70
21612;DHT22;47005;52.292;13.452;2024-01-07T10:06:39;1.60;94.60
21612;DHT22;47005;52.292;13.452;2024-01-07T10:09:06;1.70;94.70
21612;DHT22;47005;52.292;13.452;2024-01-07T10:11:33;1.70;94.60
21612;DHT22;47005;52.292;13.452;2024-01-07T10:13:59;1.70;94.30
21612;DHT22;47005;52.292;13.452;2024-01-07T10:16:25;1.70;94.80
21612;DHT22;47005;52.292;13.452;2024-01-07T10:18:50;1.70;94.60
21612;DHT22;47005;52.292;13.452;2024-01-07T10:21:16;1.80;94.80
21612;DHT22;47005;52.292;13.452;2024-01-07T10:23:41;1.80;94.90
21612;DHT22;47005;52.292;13.452;2024-01-07T10:26:07;1.80;94.30
21612;DHT22;47005;52.292;13.452;2024-01-07T10:28:33;1.70;94.10
21612;DHT22;47005;52.292;13.452;2024-01-07T10:30:59;1.80;94.30
21612;DHT22;47005;52.292;13.452;2024-01-07T10:33:25;1.90;94.80
21612;DHT22;47005;52.292;13.452;2024-01-07T10:35:52;1.80;94.60
21612;DHT22;47005;52.292;13.452;2024-01-07T10:38:20;1.90;94.50
21612;DHT22;47005;52.292;13.452;2024-01-07T10:40:48;1.80;94.50
21612;DHT22;47005;52.292;13.452;2024-01-07T10:43:15;1.90;94.60
21612;DHT22;47005;52.292;13.452;2024-01-07T10:45:44;1.90;94.60
21612;DHT22;47005;52.292;13.452;2024-01-07T10:48:15;1.90;94.50
21612;DHT22;47005;52.292;13.452;2024-01-07T10:50:45;1.90;94.50
21612;DHT22;47005;52.292;13.452;2024-01-07T10:53:13;1.90;94.60
21612;DHT22;47005;52.292;13.452;2024-01-07T10:55:52;2.00;94.60
21612;DHT22;47005;52.292;13.452;2024-01-07T10:58:20;1.90;94.30
21612;DHT22;47005;52.292;13.452;2024-01-07T11:00:47;1.90;94.60
21612;DHT22;47005;52.292;13.452;2024-01-07T11:03:30;1.90;94.70
21612;DHT22;47005;52.292;13.452;2024-01-07T11:06:27;2.00;94.80
21612;DHT22;47005;52.292;13.452;2024-01-07T11:09:20;2.00;94.60
21612;DHT22;47005;52.292;13.452;2024-01-07T11:11:47;2.00;94.80
21612;DHT22;47005;52.292;13.452;2024-01-07T11:14:35;2.00;94.90
21612;DHT22;47005;52.292;13.452;2024-01-07T11:17:11;2.00;95.10
21612;DHT22;47005;52.292;13.452;2024-01-07T11:19:49;2.00;95.10
21612;DHT22;47005;52.292;13.452;2024-01-07T11:22:26;1.90;95.30
21612;DHT22;47005;52.292;13.452;2024-01-07T11:25:01;2.00;95.30
21612;DHT22;47005;52.292;13.452;2024-01-07T11:27:31;2.00;95.40
21612;DHT22;47005;52.292;13.452;2024-01-07T11:30:18;2.00;95.50
21612;DHT22;47005;52.292;13.452;2024-01-07T11:32:45;2.00;95.40
21612;DHT22;47005;52.292;13.452;2024-01-07T11:35:12;2.00;95.60
21612;DHT22;47005;52.292;13.452;2024-01-07T11:37:38;2.00;95.70
21612;DHT22;47005;52.292;13.452;2024-01-07T11:40:06;2.00;95.80
21612;DHT22;47005;52.292;13.452;2024-01-07T11:42:32;2.00;95.90
21612;DHT22;47005;52.292;13.452;2024-01-07T11:44:58;2.10;95.80
21612;DHT22;47005;52.292;13.452;2024-01-07T11:47:24;2.10;95.90
21612;DHT22;47005;52.292;13.452;2024-01-07T11:49:53;2.10;96.00
21612;DHT22;47005;52.292;13.452;2024-01-07T11:52:19;2.10;96.00
21612;DHT22;47005;52.292;13.452;2024-01-07T11:54:45;2.10;95.90
21612;DHT22;47005;52.292;13.452;2024-01-07T11:57:12;2.00;96.10
21612;DHT22;47005;52.292;13.452;2024-01-07T11:59:38;2.10;96.20
21612;DHT22;47005;52.292;13.452;2024-01-07T12:02:04;2.10;96.20
21612;DHT22;47005;52.292;13.452;2024-01-07T12:04:31;2.10;96.20
21612;DHT22;47005;52.292;13.452;2024-01-07T12:06:57;2.20;96.20
21612;DHT22;47005;52.292;13.452;2024-01-07T12:09:22;2.20;96.20
21612;DHT22;47005;52.292;13.452;2024-01-07T12:11:48;2.20;96.30
21612;DHT22;47005;52.292;13.452;2024-01-07T12:14:14;2.30;96.60
21612;DHT22;47005;52.292;13.452;2024-01-07T12:16:40;2.20;96.30
21612;DHT22;47005;52.292;13.452;2024-01-07T12:19:07;2.20;96.30
21612;DHT22;47005;52.292;13.452;2024-01-07T12:21:33;2.20;96.20
21612;DHT22;47005;52.292;13.452;2024-01-07T12:23:59;2.30;96.30
21612;DHT22;47005;52.292;13.452;2024-01-07T12:26:28;2.30;96.40
21612;DHT22;47005;52.292;13.452;2024-01-07T12:28:55;2.30;96.50
21612;DHT22;47005;52.292;13.452;2024-01-07T12:31:23;2.30;96.50
21612;DHT22;47005;52.292;13.452;2024-01-07T12:33:49;2.30;96.80
21612;DHT22;47005;52.292;13.452;2024-01-07T12:36:14;2.30;96.80
21612;DHT22;47005;52.292;13.452;2024-01-07T12:38:40;2.30;96.90
21612;DHT22;47005;52.292;13.452;2024-01-07T12:41:06;2.30;96.90
21612;DHT22;47005;52.292;13.452;2024-01-07T12:43:32;2.40;96.90
21612;DHT22;47005;52.292;13.452;2024-01-07T12:45:58;2.40;97.00
21612;DHT22;47005;52.292;13.452;2024-01-07T12:48:30;2.40;97.00
21612;DHT22;47005;52.292;13.452;2024-01-07T12:50:55;2.30;97.10
21612;DHT22;47005;52.292;13.452;2024-01-07T12:53:21;2.40;97.30
21612;DHT22;47005;52.292;13.452;2024-01-07T12:55:47;2.40;97.20
21612;DHT22;47005;52.292;13.452;2024-01-07T12:58:12;2.40;97.30
21612;DHT22;47005;52.292;13.452;2024-01-07T13:00:38;2.40;97.30
21612;DHT22;47005;52.292;13.452;2024-01-07T13:03:06;2.50;97.30
21612;DHT22;47005;52.292;13.452;2024-01-07T13:05:33;2.50;97.50
21612;DHT22;47005;52.292;13.452;2024-01-07T13:07:59;2.40;97.60
21612;DHT22;47005;52.292;13.452;2024-01-07T13:10:24;2.40;97.80
21612;DHT22;47005;52.292;13.452;2024-01-07T13:12:50;2.40;97.70
21612;DHT22;47005;52.292;13.452;2024-01-07T13:15:16;2.40;97.90
21612;DHT22;47005;52.292;13.452;2024-01-07T13:17:42;2.40;98.10
21612;DHT22;47005;52.292;13.452;2024-01-07T13:20:08;2.40;98.10
21612;DHT22;47005;52.292;13.452;2024-01-07T13:22:37;2.50;98.20
21612;DHT22;47005;52.292;13.452;2024-01-07T13:25:07;2.50;98.30
21612;DHT22;47005;52.292;13.452;2024-01-07T13:27:33;2.50;98.40
21612;DHT22;47005;52.292;13.452;2024-01-07T13:30:00;2.50;98.50
21612;DHT22;47005;52.292;13.452;2024-01-07T13:32:25;2.50;98.50
21612;DHT22;47005;52.292;13.452;2024-01-07T13:34:51;2.60;98.50
21612;DHT22;47005;52.292;13.452;2024-01-07T13:37:17;2.50;98.40
21612;DHT22;47005;52.292;13.452;2024-01-07T13:39:42;2.50;98.50
21612;DHT22;47005;52.292;13.452;2024-01-07T13:42:08;2.50;98.60
21612;DHT22;47005;52.292;13.452;2024-01-07T13:44:33;2.50;98.60
21612;DHT22;47005;52.292;13.452;2024-01-07T13:47:00;2.60;98.70
21612;DHT22;47005;52.292;13.452;2024-01-07T13:49:26;2.50;98.80
21612;DHT22;47005;52.292;13.452;2024-01-07T13:51:53;2.50;98.90
21612;DHT22;47005;52.292;13.452;2024-01-07T13:54:19;2.60;98.90
21612;DHT22;47005;52.292;13.452;2024-01-07T13:56:45;2.50;99.00
21612;DHT22;47005;52.292;13.452;2024-01-07T13:59:11;2.60;99.20
21612;DHT22;47005;52.292;13.452;2024-01-07T14:01:37;2.50;99.30
21612;DHT22;47005;52.292;13.452;2024-01-07T14:04:03;2.50;99.40
21612;DHT22;47005;52.292;13.452;2024-01-07T14:06:30;2.50;99.40
21612;DHT22;47005;52.292;13.452;2024-01-07T14:08:55;2.50;99.40
21612;DHT22;47005;52.292;13.452;2024-01-07T14:11:21;2.50;99.40
21612;DHT22;47005;52.292;13.452;2024-01-07T14:13:47;2.60;99.50
21612;DHT22;47005;52.292;13.452;2024-01-07T14:16:13;2.60;99.60
21612;DHT22;47005;52.292;13.452;2024-01-07T14:18:39;2.60;99.60
21612;DHT22;47005;52.292;13.452;2024-01-07T14:21:05;2.50;99.70
21612;DHT22;47005;52.292;13.452;2024-01-07T14:23:31;2.50;99.90
21612;DHT22;47005;52.292;13.452;2024-01-07T14:25:57;2.50;99.90
21612;DHT22;47005;52.292;13.452;2024-01-07T14:28:23;2.40;99.90
21612;DHT22;47005;52.292;13.452;2024-01-07T14:30:49;2.50;99.90
21612;DHT22;47005;52.292;13.452;2024-01-07T14:33:14;2.50;99.90
21612;DHT22;47005;52.292;13.452;2024-01-07T14:35:40;2.50;99.90
21612;DHT22;47005;52.292;13.452;2024-01-07T14:38:06;2.60;99.90
21612;DHT22;47005;52.292;13.452;2024-01-07T14:40:32;2.60;99.90
21612;DHT22;47005;52.292;13.452;2024-01-07T14:42:58;2.60;99.90
21612;DHT22;47005;52.292;13.452;2024-01-07T14:45:27;2.60;99.90
21612;DHT22;47005;52.292;13.452;2024-01-07T14:47:53;2.50;99.90
21612;DHT22;47005;52.292;13.452;2024-01-07T14:50:20;2.50;99.90
21612;DHT22;47005;52.292;13.452;2024-01-07T14:52:45;2.50;99.90
21612;DHT22;47005;52.292;13.452;2024-01-07T14:55:11;2.50;99.90
21612;DHT22;47005;52.292;13.452;2024-01-07T14:57:41;2.60;99.90
21612;DHT22;47005;52.292;13.452;2024-01-07T15:00:07;2.60;99.90
21612;DHT22;47005;52.292;13.452;2024-01-07T15:02:33;2.60;99.90
21612;DHT22;47005;52.292;13.452;2024-01-07T15:04:59;2.60;99.90
21612;DHT22;47005;52.292;13.452;2024-01-07T15:07:25;2.60;99.90
21612;DHT22;47005;52.292;13.452;2024-01-07T15:09:50;2.60;99.90
21612;DHT22;47005;52.292;13.452;2024-01-07T15:12:16;2.50;99.90
21612;DHT22;47005;52.292;13.452;2024-01-07T15:14:41;2.50;99.90
21612;DHT22;47005;52.292;13.452;2024-01-07T15:17:07;2.60;99.90
21612;DHT22;47005;52.292;13.452;2024-01-07T15:19:33;2.60;99.90
21612;DHT22;47005;52.292;13.452;2024-01-07T15:21:59;2.60;99.90
21612;DHT22;47005;52.292;13.452;2024-01-07T15:24:25;2.50;99.90
21612;DHT22;47005;52.292;13.452;2024-01-07T15:26:50;2.60;99.90